createdAt,value
2022-12-11T00:00:06.058Z,99836.73
2022-12-11T00:02:35.326Z,99841.29
2022-12-11T00:05:04.150Z,99846.08
2022-12-11T00:07:32.449Z,99848.14
2022-12-11T00:10:01.217Z,99847.81
2022-12-11T00:12:32.478Z,99846.95
2022-12-11T00:15:01.580Z,99840.30
2022-12-11T00:17:30.147Z,99839.09
2022-12-11T00:19:58.612Z,99844.17
2022-12-11T00:22:26.941Z,99842.28
2022-12-11T00:24:55.247Z,99837.30
2022-12-11T00:27:24.258Z,99834.02
2022-12-11T00:29:52.531Z,99833.48
2022-12-11T00:32:20.785Z,99834.83
2022-12-11T00:34:49.063Z,99834.67
2022-12-11T00:37:17.557Z,99838.09
2022-12-11T00:39:46.081Z,99833.04
2022-12-11T00:42:14.588Z,99832.90
2022-12-11T00:44:43.078Z,99836.67
2022-12-11T00:47:11.338Z,99835.86
2022-12-11T00:49:39.657Z,99839.92
2022-12-11T00:52:08.190Z,99838.07
2022-12-11T00:54:36.643Z,99837.77
2022-12-11T00:57:04.925Z,99842.58
2022-12-11T00:59:33.215Z,99840.45
2022-12-11T01:02:01.517Z,99838.71
2022-12-11T01:04:29.802Z,99838.49
2022-12-11T01:06:58.266Z,99837.05
2022-12-11T01:09:45.221Z,99836.30
2022-12-11T01:12:13.493Z,99830.95
2022-12-11T01:14:41.872Z,99829.02
2022-12-11T01:17:10.159Z,99827.89
2022-12-11T01:19:38.390Z,99832.38
2022-12-11T01:22:06.726Z,99833.97
2022-12-11T01:24:34.956Z,99832.52
2022-12-11T01:27:03.602Z,99831.72
2022-12-11T01:29:32.598Z,99825.14
2022-12-11T01:32:00.847Z,99827.21
2022-12-11T01:34:30.641Z,99818.77
2022-12-11T01:36:59.415Z,99826.12
2022-12-11T01:39:27.756Z,99829.90
2022-12-11T01:42:00.599Z,99825.34
2022-12-11T01:44:32.053Z,99823.52
2022-12-11T01:47:00.539Z,99823.42
2022-12-11T01:49:29.509Z,99821.77
2022-12-11T01:52:08.232Z,99816.75
2022-12-11T01:54:36.604Z,99811.89
2022-12-11T01:57:08.905Z,99812.95
2022-12-11T01:59:39.034Z,99811.30
2022-12-11T02:02:14.047Z,99814.39
2022-12-11T02:04:44.181Z,99818.17
2022-12-11T02:07:12.741Z,99819.76
2022-12-11T02:09:44.691Z,99816.73
2022-12-11T02:12:23.003Z,99812.15
2022-12-11T02:15:08.939Z,99805.02
2022-12-11T02:18:03.393Z,99803.54
2022-12-11T02:20:53.966Z,99802.86
2022-12-11T02:23:45.674Z,99801.17
2022-12-11T02:26:23.895Z,99798.30
2022-12-11T02:29:01.028Z,99796.64
2022-12-11T02:31:47.773Z,99798.00
2022-12-11T02:34:21.965Z,99790.38
2022-12-11T02:36:54.426Z,99791.76
2022-12-11T02:39:27.081Z,99787.36
2022-12-11T02:41:56.677Z,99786.58
2022-12-11T02:44:29.511Z,99790.02
2022-12-11T02:46:58.534Z,99791.60
2022-12-11T02:49:28.266Z,99787.74
2022-12-11T02:51:59.275Z,99799.88
2022-12-11T02:54:32.143Z,99795.83
2022-12-11T02:57:14.084Z,99794.48
2022-12-11T02:59:45.192Z,99793.84
2022-12-11T03:02:17.288Z,99792.85
2022-12-11T03:04:46.084Z,99789.29
2022-12-11T03:07:27.806Z,99795.27
2022-12-11T03:09:56.185Z,99794.77
2022-12-11T03:12:30.155Z,99795.80
2022-12-11T03:15:01.299Z,99793.95
2022-12-11T03:17:43.064Z,99792.44
2022-12-11T03:20:34.969Z,99790.22
2022-12-11T03:23:24.506Z,99792.45
2022-12-11T03:26:16.017Z,99786.68
2022-12-11T03:29:00.177Z,99780.40
2022-12-11T03:31:40.344Z,99781.28
2022-12-11T03:34:23.956Z,99779.11
2022-12-11T03:36:55.828Z,99780.15
2022-12-11T03:39:39.318Z,99782.07
2022-12-11T03:42:12.134Z,99781.73
2022-12-11T03:44:43.303Z,99776.48
2022-12-11T03:47:15.664Z,99777.68
2022-12-11T03:49:46.087Z,99772.40
2022-12-11T03:52:15.877Z,99771.73
2022-12-11T03:54:47.820Z,99771.74
2022-12-11T03:57:19.593Z,99770.90
2022-12-11T03:59:48.990Z,99767.66
2022-12-11T04:02:17.310Z,99769.88
2022-12-11T04:04:45.789Z,99766.48
2022-12-11T04:07:14.159Z,99765.45
2022-12-11T04:09:42.417Z,99763.41
2022-12-11T04:12:10.650Z,99763.24
2022-12-11T04:14:57.796Z,99763.23
2022-12-11T04:17:44.764Z,99767.34
2022-12-11T04:20:32.362Z,99768.20
2022-12-11T04:23:22.361Z,99767.35
2022-12-11T04:25:51.020Z,99765.29
2022-12-11T04:28:19.518Z,99767.33
2022-12-11T04:30:49.940Z,99763.42
2022-12-11T04:33:18.547Z,99760.85
2022-12-11T04:35:47.118Z,99762.40
2022-12-11T04:38:15.428Z,99761.54
2022-12-11T04:40:43.771Z,99761.88
2022-12-11T04:43:12.075Z,99765.80
2022-12-11T04:45:40.311Z,99768.36
2022-12-11T04:48:08.656Z,99767.50
2022-12-11T04:50:36.904Z,99769.73
2022-12-11T04:53:05.279Z,99767.52
2022-12-11T04:55:33.519Z,99767.52
2022-12-11T04:58:01.761Z,99768.71
2022-12-11T05:00:30.182Z,99775.39
2022-12-11T05:02:58.445Z,99773.52
2022-12-11T05:05:26.877Z,99772.33
2022-12-11T05:07:55.225Z,99771.13
2022-12-11T05:10:23.678Z,99773.88
2022-12-11T05:12:52.018Z,99768.06
2022-12-11T05:15:20.252Z,99766.52
2022-12-11T05:17:48.669Z,99763.97
2022-12-11T05:20:17.012Z,99762.60
2022-12-11T05:22:45.308Z,99763.98
2022-12-11T05:25:13.866Z,99763.98
2022-12-11T05:27:42.781Z,99768.93
2022-12-11T05:30:11.355Z,99766.55
2022-12-11T05:32:39.725Z,99765.70
2022-12-11T05:35:08.579Z,99763.48
2022-12-11T05:37:37.055Z,99763.15
2022-12-11T05:40:06.608Z,99759.56
2022-12-11T05:42:34.981Z,99755.95
2022-12-11T05:45:03.694Z,99757.50
2022-12-11T05:47:32.007Z,99754.95
2022-12-11T05:50:00.260Z,99754.08
2022-12-11T05:52:28.577Z,99758.02
2022-12-11T05:54:57.017Z,99753.06
2022-12-11T05:57:25.317Z,99750.48
2022-12-11T05:59:53.595Z,99751.00
2022-12-11T06:02:22.368Z,99744.16
2022-12-11T06:04:50.828Z,99746.02
2022-12-11T06:07:19.076Z,99746.03
2022-12-11T06:09:47.439Z,99731.83
2022-12-11T06:12:15.658Z,99725.48
2022-12-11T06:14:43.898Z,99720.69
2022-12-11T06:17:12.138Z,99717.61
2022-12-11T06:19:40.721Z,99720.34
2022-12-11T06:22:08.966Z,99721.70
2022-12-11T06:24:37.492Z,99723.41
2022-12-11T06:27:05.795Z,99722.38
2022-12-11T06:29:34.111Z,99718.45
2022-12-11T06:32:02.811Z,99720.50
2022-12-11T06:34:31.251Z,99723.08
2022-12-11T06:36:59.644Z,99721.54
2022-12-11T06:39:27.934Z,99721.37
2022-12-11T06:41:56.345Z,99725.45
2022-12-11T06:44:25.220Z,99726.16
2022-12-11T06:46:53.565Z,99723.24
2022-12-11T06:49:21.967Z,99727.19
2022-12-11T06:51:50.215Z,99724.42
2022-12-11T06:54:18.741Z,99731.25
2022-12-11T06:56:47.406Z,99732.61
2022-12-11T06:59:15.584Z,99735.34
2022-12-11T07:01:43.853Z,99733.61
2022-12-11T07:04:12.175Z,99736.86
2022-12-11T07:06:40.433Z,99731.37
2022-12-11T07:09:08.735Z,99730.34
2022-12-11T07:11:37.205Z,99737.67
2022-12-11T07:14:05.428Z,99735.95
2022-12-11T07:16:33.771Z,99738.18
2022-12-11T07:19:02.261Z,99733.89
2022-12-11T07:21:30.516Z,99727.90
2022-12-11T07:23:59.173Z,99727.72
2022-12-11T07:26:28.678Z,99725.48
2022-12-11T07:28:58.870Z,99727.34
2022-12-11T07:31:30.290Z,99724.77
2022-12-11T07:34:05.334Z,99721.84
2022-12-11T07:36:34.832Z,99721.14
2022-12-11T07:39:03.280Z,99720.77
2022-12-11T07:41:32.015Z,99719.73
2022-12-11T07:44:01.456Z,99722.27
2022-12-11T07:46:32.025Z,99720.38
2022-12-11T07:49:03.691Z,99718.98
2022-12-11T07:51:49.448Z,99716.92
2022-12-11T07:54:17.902Z,99708.52
2022-12-11T07:56:52.938Z,99707.66
2022-12-11T07:59:22.514Z,99709.20
2022-12-11T08:01:50.744Z,99708.84
2022-12-11T08:04:19.017Z,99711.41
2022-12-11T08:06:47.931Z,99707.30
2022-12-11T08:09:21.065Z,99706.42
2022-12-11T08:23:12.138Z,99719.86
2022-12-11T08:25:40.433Z,99721.23
2022-12-11T08:28:08.637Z,99723.60
2022-12-11T08:30:40.177Z,99722.91
2022-12-11T08:33:08.497Z,99727.50
2022-12-11T08:35:41.523Z,99725.95
2022-12-11T08:38:09.874Z,99728.86
2022-12-11T08:40:38.229Z,99728.17
2022-12-11T08:43:06.549Z,99729.55
2022-12-11T08:45:34.824Z,99729.20
2022-12-11T08:48:03.109Z,99734.33
2022-12-11T08:50:31.444Z,99735.19
2022-12-11T08:52:59.865Z,99737.91
2022-12-11T08:55:28.294Z,99741.50
2022-12-11T08:57:56.585Z,99736.69
2022-12-11T09:00:24.924Z,99735.63
2022-12-11T09:02:53.267Z,99734.41
2022-12-11T09:05:21.538Z,99734.21
2022-12-11T09:07:49.952Z,99736.23
2022-12-11T09:10:18.568Z,99737.92
2022-12-11T09:12:47.061Z,99731.74
2022-12-11T09:15:15.329Z,99728.13
2022-12-11T09:17:43.809Z,99723.11
2022-12-11T09:20:12.235Z,99723.29
2022-12-11T09:22:40.619Z,99724.14
2022-12-11T09:25:09.856Z,99720.56
2022-12-11T09:27:38.431Z,99721.60
2022-12-11T09:30:08.310Z,99727.60
2022-12-11T09:32:36.655Z,99726.05
2022-12-11T09:35:05.470Z,99723.48
2022-12-11T09:37:34.362Z,99720.73
2022-12-11T09:40:07.576Z,99717.14
2022-12-11T09:42:47.081Z,99710.95
2022-12-11T09:45:16.706Z,99706.31
2022-12-11T09:47:50.267Z,99706.82
2022-12-11T09:50:30.241Z,99707.84
2022-12-11T09:53:21.943Z,99709.71
2022-12-11T09:56:04.787Z,99707.64
2022-12-11T09:58:35.980Z,99708.64
2022-12-11T10:01:31.338Z,99708.81
2022-12-11T10:04:19.869Z,99705.37
2022-12-11T10:07:18.479Z,99708.63
2022-12-11T10:09:53.645Z,99705.05
2022-12-11T10:12:27.940Z,99702.98
2022-12-11T10:15:20.163Z,99699.38
2022-12-11T10:17:48.612Z,99707.81
2022-12-11T10:20:20.899Z,99704.89
2022-12-11T10:22:50.157Z,99706.44
2022-12-11T10:25:42.052Z,99704.56
2022-12-11T10:28:19.075Z,99703.04
2022-12-11T10:31:18.712Z,99697.04
2022-12-11T10:34:15.261Z,99694.11
2022-12-11T10:52:39.204Z,99661.91
2022-12-11T10:55:38.015Z,99656.95
2022-12-11T10:58:06.821Z,99650.57
2022-12-11T11:00:42.383Z,99648.84
2022-12-11T11:03:26.262Z,99647.11
2022-12-11T11:06:17.279Z,99640.08
2022-12-11T11:08:48.788Z,99639.04
2022-12-11T11:11:22.372Z,99637.48
2022-12-11T11:13:51.212Z,99635.43
2022-12-11T11:16:22.502Z,99633.21
2022-12-11T11:18:56.039Z,99631.85
2022-12-11T11:21:26.610Z,99629.10
2022-12-11T11:23:54.964Z,99623.61
2022-12-11T11:26:34.201Z,99615.55
2022-12-11T11:29:25.742Z,99614.18
2022-12-11T11:31:54.103Z,99620.19
2022-12-11T11:34:22.512Z,99616.27
2022-12-11T11:37:23.373Z,99614.03
2022-12-11T11:39:55.646Z,99611.15
2022-12-11T11:42:34.959Z,99604.12
2022-12-11T11:45:10.977Z,99598.13
2022-12-11T11:47:50.976Z,99593.16
2022-12-11T11:50:24.695Z,99589.90
2022-12-11T11:53:12.541Z,99585.61
2022-12-11T11:55:59.146Z,99585.60
2022-12-11T11:58:56.581Z,99579.30
2022-12-11T12:01:26.199Z,99577.30
2022-12-11T12:03:55.540Z,99574.21
2022-12-11T12:06:29.057Z,99573.33
2022-12-11T12:09:19.385Z,99568.17
2022-12-11T12:11:59.900Z,99567.11
2022-12-11T12:17:55.724Z,99571.52
2022-12-11T12:20:28.453Z,99573.04
2022-12-11T12:23:36.861Z,99572.52
2022-12-11T12:26:23.825Z,99569.27
2022-12-11T12:29:20.966Z,99572.36
2022-12-11T12:31:49.675Z,99571.02
2022-12-11T12:34:40.076Z,99567.26
2022-12-11T12:37:20.816Z,99562.84
2022-12-11T12:39:52.348Z,99563.58
2022-12-11T12:42:43.485Z,99562.23
2022-12-11T12:45:14.799Z,99555.92
2022-12-11T12:47:50.393Z,99554.91
2022-12-11T12:50:30.086Z,99553.55
2022-12-11T12:52:59.003Z,99553.39
2022-12-11T12:55:31.976Z,99547.40
2022-12-11T12:58:08.077Z,99544.14
2022-12-11T13:00:42.912Z,99542.07
2022-12-11T13:03:27.661Z,99543.10
2022-12-11T13:06:09.618Z,99537.98
2022-12-11T13:08:42.270Z,99534.73
2022-12-11T13:11:13.445Z,99533.04
2022-12-11T13:13:43.622Z,99532.37
2022-12-11T13:16:18.125Z,99528.80
2022-12-11T13:18:48.466Z,99526.95
2022-12-11T13:21:40.632Z,99527.20
2022-12-11T13:24:15.080Z,99527.06
2022-12-11T13:26:44.290Z,99522.11
2022-12-11T13:29:35.736Z,99523.67
2022-12-11T13:32:10.323Z,99524.23
2022-12-11T13:34:42.275Z,99526.14
2022-12-11T13:37:27.071Z,99528.07
2022-12-11T13:39:56.727Z,99532.20
2022-12-11T13:42:33.337Z,99535.14
2022-12-11T13:45:03.632Z,99532.77
2022-12-11T13:47:33.114Z,99537.91
2022-12-11T13:50:25.516Z,99537.91
2022-12-11T13:52:59.488Z,99536.19
2022-12-11T13:55:31.055Z,99536.36
2022-12-11T13:57:59.856Z,99537.05
2022-12-11T14:00:33.072Z,99539.27
2022-12-11T14:03:07.559Z,99540.69
2022-12-11T14:05:36.814Z,99535.94
2022-12-11T14:08:11.797Z,99530.51
2022-12-11T14:10:40.555Z,99529.84
2022-12-11T14:13:31.488Z,99531.73
2022-12-11T14:16:00.412Z,99536.73
2022-12-11T14:18:31.929Z,99530.77
2022-12-11T14:21:06.642Z,99525.83
2022-12-11T14:23:36.785Z,99523.80
2022-12-11T14:26:18.228Z,99521.58
2022-12-11T14:28:46.637Z,99515.29
2022-12-11T14:31:22.321Z,99506.73
2022-12-11T14:33:58.230Z,99506.23
2022-12-11T14:36:28.342Z,99499.08
2022-12-11T14:39:03.555Z,99499.06
2022-12-11T14:41:45.181Z,99496.14
2022-12-11T14:44:16.943Z,99497.33
2022-12-11T14:46:50.527Z,99499.04
2022-12-11T14:49:35.352Z,99498.00
2022-12-11T14:52:05.601Z,99493.03
2022-12-11T14:54:42.482Z,99495.42
2022-12-11T14:57:20.388Z,99492.52
2022-12-11T14:59:51.969Z,99488.61
2022-12-11T15:02:26.136Z,99488.81
2022-12-11T15:05:18.974Z,99489.52
2022-12-11T15:08:13.678Z,99487.48
2022-12-11T15:10:58.964Z,99483.55
2022-12-11T15:13:27.767Z,99484.59
2022-12-11T15:15:57.319Z,99478.26
2022-12-11T15:18:38.766Z,99474.47
2022-12-11T15:21:10.496Z,99472.40
2022-12-11T15:24:00.238Z,99475.63
2022-12-11T15:26:48.785Z,99474.06
2022-12-11T15:29:40.661Z,99471.14
2022-12-11T15:32:09.020Z,99467.33
2022-12-11T15:34:54.749Z,99462.20
2022-12-11T15:37:29.166Z,99456.89
2022-12-11T15:40:00.142Z,99457.07
2022-12-11T15:42:35.367Z,99454.33
2022-12-11T15:45:07.183Z,99458.44
2022-12-11T15:47:35.670Z,99451.25
2022-12-11T15:50:26.791Z,99448.52
2022-12-11T15:52:57.047Z,99450.41
2022-12-11T15:55:34.491Z,99457.09
2022-12-11T15:58:05.962Z,99457.61
2022-12-11T16:00:34.376Z,99455.20
2022-12-11T16:03:02.689Z,99450.91
2022-12-11T16:05:31.329Z,99444.54
2022-12-11T16:07:59.876Z,99441.08
2022-12-11T16:10:28.424Z,99443.44
2022-12-11T16:12:59.759Z,99439.30
2022-12-11T16:15:29.568Z,99435.54
2022-12-11T16:18:03.749Z,99434.30
2022-12-11T16:20:33.041Z,99434.64
2022-12-11T16:23:01.694Z,99431.55
2022-12-11T16:25:31.770Z,99427.09
2022-12-11T16:28:01.738Z,99424.52
2022-12-11T16:30:30.230Z,99419.05
2022-12-11T16:32:58.439Z,99420.94
2022-12-11T16:35:26.777Z,99414.44
2022-12-11T16:37:56.258Z,99416.16
2022-12-11T16:40:24.534Z,99416.17
2022-12-11T16:42:53.057Z,99418.22
2022-12-11T16:45:24.063Z,99419.25
2022-12-11T16:47:53.560Z,99416.34
2022-12-11T16:50:23.598Z,99411.38
2022-12-11T16:52:51.926Z,99407.96
2022-12-11T16:55:22.348Z,99407.77
2022-12-11T16:57:50.670Z,99408.77
2022-12-11T17:00:19.845Z,99403.79
2022-12-11T17:02:48.271Z,99401.70
2022-12-11T17:05:17.242Z,99396.55
2022-12-11T17:07:45.487Z,99391.05
2022-12-11T17:10:14.319Z,99388.80
2022-12-11T17:12:42.697Z,99389.81
2022-12-11T17:15:11.474Z,99383.98
2022-12-11T17:17:40.368Z,99378.15
2022-12-11T17:20:10.523Z,99377.80
2022-12-11T17:22:38.803Z,99376.79
2022-12-11T17:25:07.812Z,99374.92
2022-12-11T17:27:36.158Z,99375.25
2022-12-11T17:30:05.040Z,99370.64
2022-12-11T17:32:33.399Z,99373.55
2022-12-11T17:35:01.720Z,99368.41
2022-12-11T17:37:30.689Z,99367.20
2022-12-11T17:39:59.327Z,99365.80
2022-12-11T17:42:27.539Z,99362.70
2022-12-11T17:44:55.833Z,99357.70
2022-12-11T17:47:24.470Z,99352.05
2022-12-11T17:49:52.698Z,99352.55
2022-12-11T17:52:20.940Z,99354.44
2022-12-11T17:54:49.828Z,99354.95
2022-12-11T17:57:18.134Z,99354.11
2022-12-11T17:59:46.461Z,99354.45
2022-12-11T18:02:15.011Z,99355.17
2022-12-11T18:04:43.594Z,99355.86
2022-12-11T18:07:11.969Z,99355.04
2022-12-11T18:09:40.962Z,99360.02
2022-12-11T18:12:09.977Z,99357.65
2022-12-11T18:14:38.522Z,99360.27
2022-12-11T18:17:07.487Z,99358.92
2022-12-11T18:19:37.383Z,99357.91
2022-12-11T18:22:07.449Z,99356.21
2022-12-11T18:24:35.764Z,99352.81
2022-12-11T18:27:04.215Z,99353.69
2022-12-11T18:29:32.483Z,99349.58
2022-12-11T18:32:00.782Z,99349.05
2022-12-11T18:34:29.129Z,99346.50
2022-12-11T18:36:57.605Z,99349.59
2022-12-11T18:39:26.272Z,99342.39
2022-12-11T18:42:24.376Z,99342.89
2022-12-11T18:44:43.678Z,99335.33
2022-12-11T18:47:12.394Z,99333.59
2022-12-11T18:49:40.670Z,99332.88
2022-12-11T18:52:09.519Z,99333.20
2022-12-11T18:54:38.103Z,99326.14
2022-12-11T18:57:06.917Z,99327.50
2022-12-11T18:59:35.761Z,99320.98
2022-12-11T19:02:04.459Z,99317.05
2022-12-11T19:04:32.851Z,99317.05
2022-12-11T19:07:01.207Z,99312.44
2022-12-11T19:09:32.781Z,99309.00
2022-12-11T19:12:05.731Z,99305.23
2022-12-11T19:14:34.697Z,99304.91
2022-12-11T19:17:03.499Z,99305.59
2022-12-11T19:19:31.875Z,99300.67
2022-12-11T19:22:00.388Z,99300.15
2022-12-11T19:24:28.819Z,99307.86
2022-12-11T19:26:57.992Z,99306.30
2022-12-11T19:29:29.779Z,99300.82
2022-12-11T19:31:59.184Z,99302.86
2022-12-11T19:34:27.593Z,99299.05
2022-12-11T19:36:56.642Z,99299.02
2022-12-11T19:39:25.248Z,99297.78
2022-12-11T19:41:53.507Z,99300.33
2022-12-11T19:44:21.917Z,99299.80
2022-12-11T19:46:50.516Z,99299.28
2022-12-11T19:49:18.788Z,99297.73
2022-12-11T19:51:47.325Z,99299.11
2022-12-11T19:54:17.862Z,99299.45
2022-12-11T19:56:46.304Z,99294.33
2022-12-11T19:59:17.714Z,99296.39
2022-12-11T20:01:48.308Z,99294.16
2022-12-11T20:04:17.823Z,99288.67
2022-12-11T20:06:48.057Z,99290.05
2022-12-11T20:09:17.063Z,99286.64
2022-12-11T20:11:45.973Z,99290.73
2022-12-11T20:14:23.262Z,99289.54
2022-12-11T20:17:10.922Z,99285.05
2022-12-11T20:19:41.330Z,99284.32
2022-12-11T20:22:10.513Z,99286.84
2022-12-11T20:24:38.852Z,99287.81
2022-12-11T20:27:07.291Z,99284.19
2022-12-11T20:29:35.690Z,99282.98
2022-12-11T20:32:05.161Z,99281.23
2022-12-11T20:34:33.528Z,99285.38
2022-12-11T20:37:01.818Z,99281.44
2022-12-11T20:39:32.125Z,99288.13
2022-12-11T20:42:01.299Z,99279.58
2022-12-11T20:44:29.582Z,99276.52
2022-12-11T20:46:57.993Z,99276.53
2022-12-11T20:49:26.567Z,99273.14
2022-12-11T20:51:54.968Z,99269.04
2022-12-11T20:54:23.249Z,99265.98
2022-12-11T20:56:52.084Z,99267.52
2022-12-11T20:59:20.559Z,99264.46
2022-12-11T21:01:49.630Z,99265.66
2022-12-11T21:04:18.250Z,99265.64
2022-12-11T21:06:47.069Z,99269.04
2022-12-11T21:09:19.411Z,99265.40
2022-12-11T21:11:49.097Z,99266.07
2022-12-11T21:14:18.718Z,99263.45
2022-12-11T21:16:47.565Z,99262.21
2022-12-11T21:19:20.321Z,99256.72
2022-12-11T21:21:49.758Z,99250.89
2022-12-11T21:24:21.381Z,99249.52
2022-12-11T21:26:50.075Z,99249.34
2022-12-11T21:29:18.709Z,99246.28
2022-12-11T21:31:47.354Z,99244.26
2022-12-11T21:34:19.357Z,99239.63
2022-12-11T21:36:57.162Z,99235.54
2022-12-11T21:39:27.034Z,99231.44
2022-12-11T21:41:55.979Z,99231.97
2022-12-11T21:47:13.369Z,99222.96
2022-12-11T21:49:42.299Z,99223.02
2022-12-11T21:52:11.107Z,99224.92
2022-12-11T21:54:39.632Z,99231.29
2022-12-11T21:57:07.884Z,99230.77
2022-12-11T21:59:36.445Z,99223.73
2022-12-11T22:02:04.720Z,99224.23
2022-12-11T22:04:33.264Z,99219.23
2022-12-11T22:07:01.963Z,99221.44
2022-12-11T22:09:30.542Z,99222.47
2022-12-11T22:11:59.062Z,99216.66
2022-12-11T22:14:27.423Z,99219.27
2022-12-11T22:16:55.806Z,99213.61
2022-12-11T22:19:27.854Z,99209.67
2022-12-11T22:22:00.556Z,99205.90
2022-12-11T22:24:28.920Z,99200.45
2022-12-11T22:26:57.337Z,99201.30
2022-12-11T22:29:25.647Z,99201.31
2022-12-11T22:31:54.693Z,99199.08
2022-12-11T22:34:22.994Z,99191.89
2022-12-11T22:36:51.779Z,99190.52
2022-12-11T22:39:20.042Z,99184.84
2022-12-11T22:41:48.623Z,99177.95
2022-12-11T22:44:20.521Z,99177.93
2022-12-11T22:46:50.524Z,99172.42
2022-12-11T22:49:20.382Z,99173.25
2022-12-11T22:51:49.520Z,99166.55
2022-12-11T22:54:17.798Z,99170.30
2022-12-11T22:56:46.212Z,99168.75
2022-12-11T22:59:14.699Z,99168.06
2022-12-11T23:01:43.274Z,99167.90
2022-12-11T23:04:11.612Z,99166.88
2022-12-11T23:06:39.981Z,99167.39
2022-12-11T23:09:08.355Z,99166.36
2022-12-11T23:11:38.441Z,99164.48
2022-12-11T23:14:08.811Z,99161.57
2022-12-11T23:16:37.373Z,99157.96
2022-12-11T23:19:05.934Z,99153.16
2022-12-11T23:21:34.796Z,99157.95
2022-12-11T23:24:04.092Z,99158.98
2022-12-11T23:26:32.956Z,99160.67
2022-12-11T23:29:02.213Z,99159.30
2022-12-11T23:31:31.256Z,99156.70
2022-12-11T23:34:00.228Z,99165.75
2022-12-11T23:36:29.356Z,99164.16
2022-12-11T23:38:57.781Z,99158.98
2022-12-11T23:41:26.035Z,99163.05
2022-12-11T23:43:54.369Z,99161.98
2022-12-11T23:46:24.530Z,99163.00
2022-12-11T23:48:53.295Z,99162.14
2022-12-11T23:51:24.408Z,99157.48
2022-12-11T23:53:53.233Z,99155.93
2022-12-11T23:56:27.719Z,99158.13
2022-12-11T23:58:56.742Z,99157.77
